sensor_id;sensor_type;location;lat;lon;timestamp;P1;durP1;ratioP1;P2;durP2;ratioP2
19788;SDS011;10054;59.332;18.244;2023-06-10T00:01:08;3.53;;;1.10;;
19788;SDS011;10054;59.332;18.244;2023-06-10T00:03:37;1.83;;;0.80;;
19788;SDS011;10054;59.332;18.244;2023-06-10T00:06:08;1.07;;;0.83;;
19788;SDS011;10054;59.332;18.244;2023-06-10T00:08:36;1.00;;;1.00;;
19788;SDS011;10054;59.332;18.244;2023-06-10T00:11:06;2.07;;;0.90;;
19788;SDS011;10054;59.332;18.244;2023-06-10T00:13:35;0.80;;;0.80;;
19788;SDS011;10054;59.332;18.244;2023-06-10T00:16:04;0.73;;;0.73;;
19788;SDS011;10054;59.332;18.244;2023-06-10T00:18:33;2.93;;;0.80;;
19788;SDS011;10054;59.332;18.244;2023-06-10T00:21:03;1.57;;;0.87;;
19788;SDS011;10054;59.332;18.244;2023-06-10T00:23:32;1.20;;;0.80;;
19788;SDS011;10054;59.332;18.244;2023-06-10T00:26:04;1.30;;;1.00;;
19788;SDS011;10054;59.332;18.244;2023-06-10T00:28:32;0.97;;;0.87;;
19788;SDS011;10054;59.332;18.244;2023-06-10T00:31:01;1.17;;;0.80;;
19788;SDS011;10054;59.332;18.244;2023-06-10T00:33:31;0.90;;;0.70;;
19788;SDS011;10054;59.332;18.244;2023-06-10T00:36:02;0.70;;;0.70;;
19788;SDS011;10054;59.332;18.244;2023-06-10T00:38:31;1.37;;;0.80;;
19788;SDS011;10054;59.332;18.244;2023-06-10T00:41:00;0.60;;;0.60;;
19788;SDS011;10054;59.332;18.244;2023-06-10T00:43:28;0.60;;;0.60;;
19788;SDS011;10054;59.332;18.244;2023-06-10T00:45:57;2.10;;;0.80;;
19788;SDS011;10054;59.332;18.244;2023-06-10T00:48:27;0.57;;;0.57;;
19788;SDS011;10054;59.332;18.244;2023-06-10T00:50:56;1.77;;;0.60;;
19788;SDS011;10054;59.332;18.244;2023-06-10T00:53:26;0.60;;;0.60;;
19788;SDS011;10054;59.332;18.244;2023-06-10T00:55:55;0.97;;;0.40;;
19788;SDS011;10054;59.332;18.244;2023-06-10T00:58:24;0.73;;;0.60;;
19788;SDS011;10054;59.332;18.244;2023-06-10T01:00:54;1.17;;;0.60;;
19788;SDS011;10054;59.332;18.244;2023-06-10T01:03:26;0.50;;;0.43;;
19788;SDS011;10054;59.332;18.244;2023-06-10T01:06:06;0.77;;;0.40;;
19788;SDS011;10054;59.332;18.244;2023-06-10T01:08:42;0.60;;;0.60;;
19788;SDS011;10054;59.332;18.244;2023-06-10T01:11:11;0.50;;;0.50;;
19788;SDS011;10054;59.332;18.244;2023-06-10T01:13:41;1.43;;;0.60;;
19788;SDS011;10054;59.332;18.244;2023-06-10T01:16:12;0.47;;;0.47;;
19788;SDS011;10054;59.332;18.244;2023-06-10T01:18:41;0.70;;;0.50;;
19788;SDS011;10054;59.332;18.244;2023-06-10T01:21:13;0.50;;;0.50;;
19788;SDS011;10054;59.332;18.244;2023-06-10T01:23:48;0.50;;;0.50;;
19788;SDS011;10054;59.332;18.244;2023-06-10T01:26:16;0.50;;;0.50;;
19788;SDS011;10054;59.332;18.244;2023-06-10T01:28:49;0.50;;;0.50;;
19788;SDS011;10054;59.332;18.244;2023-06-10T01:34:00;0.77;;;0.67;;
19788;SDS011;10054;59.332;18.244;2023-06-10T01:36:31;0.37;;;0.37;;
19788;SDS011;10054;59.332;18.244;2023-06-10T01:39:01;0.80;;;0.60;;
19788;SDS011;10054;59.332;18.244;2023-06-10T01:41:31;0.50;;;0.50;;
19788;SDS011;10054;59.332;18.244;2023-06-10T01:44:00;1.17;;;0.70;;
19788;SDS011;10054;59.332;18.244;2023-06-10T01:46:29;0.83;;;0.60;;
19788;SDS011;10054;59.332;18.244;2023-06-10T01:48:58;0.50;;;0.50;;
19788;SDS011;10054;59.332;18.244;2023-06-10T01:51:27;0.50;;;0.50;;
19788;SDS011;10054;59.332;18.244;2023-06-10T01:53:57;0.60;;;0.60;;
19788;SDS011;10054;59.332;18.244;2023-06-10T01:56:26;0.63;;;0.63;;
19788;SDS011;10054;59.332;18.244;2023-06-10T01:58:55;1.10;;;0.70;;
19788;SDS011;10054;59.332;18.244;2023-06-10T02:01:26;0.60;;;0.60;;
19788;SDS011;10054;59.332;18.244;2023-06-10T02:03:55;2.23;;;0.60;;
19788;SDS011;10054;59.332;18.244;2023-06-10T02:06:24;0.53;;;0.53;;
19788;SDS011;10054;59.332;18.244;2023-06-10T02:08:53;1.00;;;0.77;;
19788;SDS011;10054;59.332;18.244;2023-06-10T02:11:21;0.53;;;0.53;;
19788;SDS011;10054;59.332;18.244;2023-06-10T02:13:51;0.50;;;0.50;;
19788;SDS011;10054;59.332;18.244;2023-06-10T02:16:20;0.57;;;0.50;;
19788;SDS011;10054;59.332;18.244;2023-06-10T02:18:49;0.73;;;0.73;;
19788;SDS011;10054;59.332;18.244;2023-06-10T02:21:18;0.50;;;0.50;;
19788;SDS011;10054;59.332;18.244;2023-06-10T02:23:47;0.57;;;0.57;;
19788;SDS011;10054;59.332;18.244;2023-06-10T02:26:15;0.50;;;0.50;;
19788;SDS011;10054;59.332;18.244;2023-06-10T02:28:44;0.57;;;0.57;;
19788;SDS011;10054;59.332;18.244;2023-06-10T02:31:13;0.70;;;0.70;;
19788;SDS011;10054;59.332;18.244;2023-06-10T02:33:44;0.60;;;0.60;;
19788;SDS011;10054;59.332;18.244;2023-06-10T02:36:13;0.60;;;0.60;;
19788;SDS011;10054;59.332;18.244;2023-06-10T02:38:42;0.67;;;0.67;;
19788;SDS011;10054;59.332;18.244;2023-06-10T02:41:10;0.83;;;0.83;;
19788;SDS011;10054;59.332;18.244;2023-06-10T02:43:40;0.50;;;0.50;;
19788;SDS011;10054;59.332;18.244;2023-06-10T02:46:09;0.63;;;0.63;;
19788;SDS011;10054;59.332;18.244;2023-06-10T02:48:41;1.37;;;0.70;;
19788;SDS011;10054;59.332;18.244;2023-06-10T02:51:14;0.50;;;0.50;;
19788;SDS011;10054;59.332;18.244;2023-06-10T02:53:45;1.57;;;0.77;;
19788;SDS011;10054;59.332;18.244;2023-06-10T02:56:15;0.50;;;0.50;;
19788;SDS011;10054;59.332;18.244;2023-06-10T02:58:45;0.50;;;0.50;;
19788;SDS011;10054;59.332;18.244;2023-06-10T03:01:14;0.77;;;0.60;;
19788;SDS011;10054;59.332;18.244;2023-06-10T03:03:46;0.60;;;0.60;;
19788;SDS011;10054;59.332;18.244;2023-06-10T03:06:17;0.60;;;0.60;;
19788;SDS011;10054;59.332;18.244;2023-06-10T03:08:47;0.53;;;0.53;;
19788;SDS011;10054;59.332;18.244;2023-06-10T03:11:17;1.60;;;0.70;;
19788;SDS011;10054;59.332;18.244;2023-06-10T03:13:47;0.60;;;0.60;;
19788;SDS011;10054;59.332;18.244;2023-06-10T03:16:17;0.50;;;0.50;;
19788;SDS011;10054;59.332;18.244;2023-06-10T03:18:46;0.57;;;0.57;;
19788;SDS011;10054;59.332;18.244;2023-06-10T03:21:17;0.50;;;0.50;;
19788;SDS011;10054;59.332;18.244;2023-06-10T03:23:46;1.67;;;0.50;;
19788;SDS011;10054;59.332;18.244;2023-06-10T03:26:15;0.50;;;0.50;;
19788;SDS011;10054;59.332;18.244;2023-06-10T03:28:47;0.40;;;0.40;;
19788;SDS011;10054;59.332;18.244;2023-06-10T03:31:16;0.50;;;0.50;;
19788;SDS011;10054;59.332;18.244;2023-06-10T03:33:45;0.57;;;0.47;;
19788;SDS011;10054;59.332;18.244;2023-06-10T03:36:14;0.60;;;0.60;;
19788;SDS011;10054;59.332;18.244;2023-06-10T03:38:43;0.43;;;0.43;;
19788;SDS011;10054;59.332;18.244;2023-06-10T03:41:12;0.60;;;0.60;;
19788;SDS011;10054;59.332;18.244;2023-06-10T03:43:42;0.50;;;0.50;;
19788;SDS011;10054;59.332;18.244;2023-06-10T03:46:12;0.50;;;0.50;;
19788;SDS011;10054;59.332;18.244;2023-06-10T03:48:41;0.40;;;0.40;;
19788;SDS011;10054;59.332;18.244;2023-06-10T03:51:10;0.50;;;0.50;;
19788;SDS011;10054;59.332;18.244;2023-06-10T03:53:39;0.60;;;0.60;;
19788;SDS011;10054;59.332;18.244;2023-06-10T03:56:08;0.60;;;0.60;;
19788;SDS011;10054;59.332;18.244;2023-06-10T03:58:38;0.90;;;0.50;;
19788;SDS011;10054;59.332;18.244;2023-06-10T04:01:07;1.40;;;0.60;;
19788;SDS011;10054;59.332;18.244;2023-06-10T04:03:36;0.63;;;0.63;;
19788;SDS011;10054;59.332;18.244;2023-06-10T04:06:05;2.10;;;0.57;;
19788;SDS011;10054;59.332;18.244;2023-06-10T04:08:34;0.63;;;0.60;;
19788;SDS011;10054;59.332;18.244;2023-06-10T04:11:03;0.60;;;0.60;;
19788;SDS011;10054;59.332;18.244;2023-06-10T04:13:32;0.47;;;0.47;;
19788;SDS011;10054;59.332;18.244;2023-06-10T04:16:01;0.50;;;0.50;;
19788;SDS011;10054;59.332;18.244;2023-06-10T04:18:30;0.60;;;0.60;;
19788;SDS011;10054;59.332;18.244;2023-06-10T04:21:00;0.50;;;0.50;;
19788;SDS011;10054;59.332;18.244;2023-06-10T04:23:30;0.50;;;0.50;;
19788;SDS011;10054;59.332;18.244;2023-06-10T04:25:59;0.60;;;0.60;;
19788;SDS011;10054;59.332;18.244;2023-06-10T04:28:28;0.50;;;0.50;;
19788;SDS011;10054;59.332;18.244;2023-06-10T04:30:58;0.80;;;0.80;;
19788;SDS011;10054;59.332;18.244;2023-06-10T04:33:27;1.20;;;1.20;;
19788;SDS011;10054;59.332;18.244;2023-06-10T04:35:56;0.70;;;0.70;;
19788;SDS011;10054;59.332;18.244;2023-06-10T04:38:27;0.50;;;0.50;;
19788;SDS011;10054;59.332;18.244;2023-06-10T04:40:58;0.40;;;0.40;;
19788;SDS011;10054;59.332;18.244;2023-06-10T04:43:29;2.33;;;0.60;;
19788;SDS011;10054;59.332;18.244;2023-06-10T04:45:58;0.50;;;0.50;;
19788;SDS011;10054;59.332;18.244;2023-06-10T04:48:28;3.20;;;0.60;;
19788;SDS011;10054;59.332;18.244;2023-06-10T04:50:57;0.57;;;0.57;;
19788;SDS011;10054;59.332;18.244;2023-06-10T04:53:27;0.50;;;0.50;;
19788;SDS011;10054;59.332;18.244;2023-06-10T04:55:56;0.50;;;0.50;;
19788;SDS011;10054;59.332;18.244;2023-06-10T04:58:26;0.57;;;0.50;;
19788;SDS011;10054;59.332;18.244;2023-06-10T05:00:54;0.40;;;0.40;;
19788;SDS011;10054;59.332;18.244;2023-06-10T05:03:23;0.40;;;0.40;;
19788;SDS011;10054;59.332;18.244;2023-06-10T05:05:52;0.60;;;0.60;;
19788;SDS011;10054;59.332;18.244;2023-06-10T05:08:21;0.53;;;0.53;;
19788;SDS011;10054;59.332;18.244;2023-06-10T05:10:50;0.60;;;0.60;;
19788;SDS011;10054;59.332;18.244;2023-06-10T05:13:18;0.50;;;0.50;;
19788;SDS011;10054;59.332;18.244;2023-06-10T05:15:47;0.60;;;0.60;;
19788;SDS011;10054;59.332;18.244;2023-06-10T05:18:16;0.50;;;0.50;;
19788;SDS011;10054;59.332;18.244;2023-06-10T05:20:45;0.50;;;0.50;;
19788;SDS011;10054;59.332;18.244;2023-06-10T05:23:14;1.80;;;0.50;;
19788;SDS011;10054;59.332;18.244;2023-06-10T05:25:43;1.07;;;0.70;;
19788;SDS011;10054;59.332;18.244;2023-06-10T05:28:12;0.50;;;0.50;;
19788;SDS011;10054;59.332;18.244;2023-06-10T05:30:41;0.60;;;0.60;;
19788;SDS011;10054;59.332;18.244;2023-06-10T05:33:10;1.97;;;0.60;;
19788;SDS011;10054;59.332;18.244;2023-06-10T05:35:38;0.60;;;0.60;;
19788;SDS011;10054;59.332;18.244;2023-06-10T05:38:07;0.60;;;0.60;;
19788;SDS011;10054;59.332;18.244;2023-06-10T05:40:36;0.50;;;0.50;;
19788;SDS011;10054;59.332;18.244;2023-06-10T05:43:05;0.50;;;0.50;;
19788;SDS011;10054;59.332;18.244;2023-06-10T05:45:36;0.70;;;0.70;;
19788;SDS011;10054;59.332;18.244;2023-06-10T05:48:06;0.60;;;0.60;;
19788;SDS011;10054;59.332;18.244;2023-06-10T05:50:36;0.50;;;0.50;;
19788;SDS011;10054;59.332;18.244;2023-06-10T05:53:06;0.60;;;0.60;;
19788;SDS011;10054;59.332;18.244;2023-06-10T05:55:36;0.60;;;0.60;;
19788;SDS011;10054;59.332;18.244;2023-06-10T05:58:05;0.60;;;0.60;;
19788;SDS011;10054;59.332;18.244;2023-06-10T06:00:34;0.60;;;0.60;;
19788;SDS011;10054;59.332;18.244;2023-06-10T06:03:02;0.93;;;0.73;;
19788;SDS011;10054;59.332;18.244;2023-06-10T06:05:32;0.73;;;0.73;;
19788;SDS011;10054;59.332;18.244;2023-06-10T06:08:03;0.90;;;0.60;;
19788;SDS011;10054;59.332;18.244;2023-06-10T06:10:32;0.67;;;0.67;;
19788;SDS011;10054;59.332;18.244;2023-06-10T06:13:01;0.70;;;0.70;;
19788;SDS011;10054;59.332;18.244;2023-06-10T06:15:30;0.60;;;0.60;;
19788;SDS011;10054;59.332;18.244;2023-06-10T06:17:59;0.70;;;0.70;;
19788;SDS011;10054;59.332;18.244;2023-06-10T06:20:28;0.73;;;0.73;;
19788;SDS011;10054;59.332;18.244;2023-06-10T06:22:57;0.60;;;0.60;;
19788;SDS011;10054;59.332;18.244;2023-06-10T06:25:26;0.60;;;0.60;;
19788;SDS011;10054;59.332;18.244;2023-06-10T06:27:55;0.53;;;0.53;;
19788;SDS011;10054;59.332;18.244;2023-06-10T06:30:24;0.67;;;0.67;;
19788;SDS011;10054;59.332;18.244;2023-06-10T06:32:53;0.67;;;0.67;;
19788;SDS011;10054;59.332;18.244;2023-06-10T06:35:22;0.60;;;0.60;;
19788;SDS011;10054;59.332;18.244;2023-06-10T06:37:50;0.60;;;0.60;;
19788;SDS011;10054;59.332;18.244;2023-06-10T06:40:21;0.60;;;0.60;;
19788;SDS011;10054;59.332;18.244;2023-06-10T06:42:50;1.57;;;0.70;;
19788;SDS011;10054;59.332;18.244;2023-06-10T06:45:23;0.60;;;0.60;;
19788;SDS011;10054;59.332;18.244;2023-06-10T06:47:52;0.50;;;0.50;;
19788;SDS011;10054;59.332;18.244;2023-06-10T06:50:20;0.60;;;0.60;;
19788;SDS011;10054;59.332;18.244;2023-06-10T06:52:49;0.73;;;0.70;;
19788;SDS011;10054;59.332;18.244;2023-06-10T06:55:18;0.60;;;0.60;;
19788;SDS011;10054;59.332;18.244;2023-06-10T06:57:46;0.57;;;0.57;;
19788;SDS011;10054;59.332;18.244;2023-06-10T07:00:15;0.50;;;0.50;;
19788;SDS011;10054;59.332;18.244;2023-06-10T07:02:44;0.60;;;0.60;;
19788;SDS011;10054;59.332;18.244;2023-06-10T07:05:13;0.60;;;0.60;;
19788;SDS011;10054;59.332;18.244;2023-06-10T07:07:42;0.70;;;0.70;;
19788;SDS011;10054;59.332;18.244;2023-06-10T07:10:11;0.70;;;0.70;;
19788;SDS011;10054;59.332;18.244;2023-06-10T07:12:41;0.60;;;0.60;;
19788;SDS011;10054;59.332;18.244;2023-06-10T07:15:10;0.60;;;0.60;;
19788;SDS011;10054;59.332;18.244;2023-06-10T07:17:39;0.60;;;0.60;;
19788;SDS011;10054;59.332;18.244;2023-06-10T07:20:11;1.60;;;0.70;;
19788;SDS011;10054;59.332;18.244;2023-06-10T07:22:41;0.57;;;0.57;;
19788;SDS011;10054;59.332;18.244;2023-06-10T07:25:10;0.60;;;0.60;;
19788;SDS011;10054;59.332;18.244;2023-06-10T07:27:39;1.17;;;0.60;;
19788;SDS011;10054;59.332;18.244;2023-06-10T07:30:08;0.70;;;0.70;;
19788;SDS011;10054;59.332;18.244;2023-06-10T07:32:37;0.78;;;0.70;;
19788;SDS011;10054;59.332;18.244;2023-06-10T07:35:07;0.60;;;0.60;;
19788;SDS011;10054;59.332;18.244;2023-06-10T07:37:40;0.80;;;0.75;;
19788;SDS011;10054;59.332;18.244;2023-06-10T07:40:09;0.68;;;0.68;;
19788;SDS011;10054;59.332;18.244;2023-06-10T07:42:38;0.62;;;0.62;;
19788;SDS011;10054;59.332;18.244;2023-06-10T07:45:07;0.60;;;0.60;;
19788;SDS011;10054;59.332;18.244;2023-06-10T07:47:36;0.60;;;0.60;;
19788;SDS011;10054;59.332;18.244;2023-06-10T07:50:05;0.70;;;0.70;;
19788;SDS011;10054;59.332;18.244;2023-06-10T07:52:34;0.70;;;0.70;;
19788;SDS011;10054;59.332;18.244;2023-06-10T07:55:03;1.27;;;0.80;;
19788;SDS011;10054;59.332;18.244;2023-06-10T07:57:33;0.60;;;0.60;;
19788;SDS011;10054;59.332;18.244;2023-06-10T08:00:03;0.60;;;0.60;;
19788;SDS011;10054;59.332;18.244;2023-06-10T08:02:36;0.53;;;0.53;;
19788;SDS011;10054;59.332;18.244;2023-06-10T08:05:05;0.60;;;0.60;;
19788;SDS011;10054;59.332;18.244;2023-06-10T08:07:34;0.72;;;0.72;;
19788;SDS011;10054;59.332;18.244;2023-06-10T08:10:03;0.60;;;0.60;;
19788;SDS011;10054;59.332;18.244;2023-06-10T08:12:33;0.70;;;0.70;;
19788;SDS011;10054;59.332;18.244;2023-06-10T08:15:03;0.70;;;0.70;;
19788;SDS011;10054;59.332;18.244;2023-06-10T08:17:32;0.82;;;0.72;;
19788;SDS011;10054;59.332;18.244;2023-06-10T08:20:01;1.82;;;0.90;;
19788;SDS011;10054;59.332;18.244;2023-06-10T08:22:30;0.70;;;0.70;;
19788;SDS011;10054;59.332;18.244;2023-06-10T08:25:00;2.60;;;0.70;;
19788;SDS011;10054;59.332;18.244;2023-06-10T08:27:28;1.55;;;0.70;;
19788;SDS011;10054;59.332;18.244;2023-06-10T08:29:57;0.88;;;0.88;;
19788;SDS011;10054;59.332;18.244;2023-06-10T08:32:27;1.77;;;0.70;;
19788;SDS011;10054;59.332;18.244;2023-06-10T08:34:57;0.57;;;0.57;;
19788;SDS011;10054;59.332;18.244;2023-06-10T08:37:26;0.62;;;0.62;;
19788;SDS011;10054;59.332;18.244;2023-06-10T08:39:55;1.37;;;0.60;;
19788;SDS011;10054;59.332;18.244;2023-06-10T08:42:39;1.75;;;0.70;;
19788;SDS011;10054;59.332;18.244;2023-06-10T08:45:05;0.60;;;0.60;;
19788;SDS011;10054;59.332;18.244;2023-06-10T08:47:35;0.68;;;0.68;;
19788;SDS011;10054;59.332;18.244;2023-06-10T08:50:08;0.70;;;0.70;;
19788;SDS011;10054;59.332;18.244;2023-06-10T08:52:37;0.70;;;0.70;;
19788;SDS011;10054;59.332;18.244;2023-06-10T08:55:10;0.60;;;0.60;;
19788;SDS011;10054;59.332;18.244;2023-06-10T08:57:41;0.70;;;0.70;;
19788;SDS011;10054;59.332;18.244;2023-06-10T09:00:12;0.70;;;0.70;;
19788;SDS011;10054;59.332;18.244;2023-06-10T09:02:43;0.70;;;0.70;;
19788;SDS011;10054;59.332;18.244;2023-06-10T09:05:13;0.85;;;0.80;;
19788;SDS011;10054;59.332;18.244;2023-06-10T09:07:42;0.57;;;0.57;;
19788;SDS011;10054;59.332;18.244;2023-06-10T09:10:11;0.70;;;0.70;;
19788;SDS011;10054;59.332;18.244;2023-06-10T09:12:41;0.70;;;0.70;;
19788;SDS011;10054;59.332;18.244;2023-06-10T09:15:09;1.02;;;0.60;;
19788;SDS011;10054;59.332;18.244;2023-06-10T09:17:43;0.70;;;0.70;;
19788;SDS011;10054;59.332;18.244;2023-06-10T09:20:12;2.55;;;0.60;;
19788;SDS011;10054;59.332;18.244;2023-06-10T09:22:41;0.98;;;0.68;;
19788;SDS011;10054;59.332;18.244;2023-06-10T09:25:11;0.70;;;0.70;;
19788;SDS011;10054;59.332;18.244;2023-06-10T09:27:45;1.77;;;0.80;;
19788;SDS011;10054;59.332;18.244;2023-06-10T09:30:32;1.92;;;0.72;;
19788;SDS011;10054;59.332;18.244;2023-06-10T09:33:02;1.37;;;0.80;;
19788;SDS011;10054;59.332;18.244;2023-06-10T09:35:33;1.75;;;0.70;;
19788;SDS011;10054;59.332;18.244;2023-06-10T09:38:02;0.70;;;0.70;;
19788;SDS011;10054;59.332;18.244;2023-06-10T09:40:30;0.80;;;0.80;;
19788;SDS011;10054;59.332;18.244;2023-06-10T09:42:59;0.70;;;0.70;;
19788;SDS011;10054;59.332;18.244;2023-06-10T09:45:31;0.70;;;0.70;;
19788;SDS011;10054;59.332;18.244;2023-06-10T09:48:00;0.68;;;0.68;;
19788;SDS011;10054;59.332;18.244;2023-06-10T09:50:32;0.70;;;0.70;;
19788;SDS011;10054;59.332;18.244;2023-06-10T09:53:03;0.78;;;0.78;;
19788;SDS011;10054;59.332;18.244;2023-06-10T09:55:34;2.72;;;0.70;;
19788;SDS011;10054;59.332;18.244;2023-06-10T09:58:04;0.80;;;0.80;;
19788;SDS011;10054;59.332;18.244;2023-06-10T10:00:33;0.82;;;0.65;;
19788;SDS011;10054;59.332;18.244;2023-06-10T10:03:02;2.12;;;0.80;;
19788;SDS011;10054;59.332;18.244;2023-06-10T10:05:32;0.82;;;0.82;;
19788;SDS011;10054;59.332;18.244;2023-06-10T10:08:01;3.02;;;0.72;;
19788;SDS011;10054;59.332;18.244;2023-06-10T10:10:30;0.75;;;0.72;;
19788;SDS011;10054;59.332;18.244;2023-06-10T10:12:59;0.70;;;0.70;;
19788;SDS011;10054;59.332;18.244;2023-06-10T10:15:29;0.70;;;0.70;;
19788;SDS011;10054;59.332;18.244;2023-06-10T10:20:35;0.80;;;0.80;;
19788;SDS011;10054;59.332;18.244;2023-06-10T10:23:09;0.65;;;0.65;;
19788;SDS011;10054;59.332;18.244;2023-06-10T10:25:41;0.80;;;0.80;;
19788;SDS011;10054;59.332;18.244;2023-06-10T10:28:11;0.70;;;0.70;;
19788;SDS011;10054;59.332;18.244;2023-06-10T10:30:47;0.70;;;0.70;;
19788;SDS011;10054;59.332;18.244;2023-06-10T10:33:30;0.80;;;0.80;;
19788;SDS011;10054;59.332;18.244;2023-06-10T10:35:58;0.80;;;0.75;;
19788;SDS011;10054;59.332;18.244;2023-06-10T10:38:28;1.42;;;0.88;;
19788;SDS011;10054;59.332;18.244;2023-06-10T10:40:57;1.00;;;0.80;;
19788;SDS011;10054;59.332;18.244;2023-06-10T10:43:27;0.88;;;0.88;;
19788;SDS011;10054;59.332;18.244;2023-06-10T10:45:58;0.98;;;0.98;;
19788;SDS011;10054;59.332;18.244;2023-06-10T10:48:32;0.80;;;0.80;;
19788;SDS011;10054;59.332;18.244;2023-06-10T10:51:01;0.72;;;0.72;;
19788;SDS011;10054;59.332;18.244;2023-06-10T10:53:31;0.80;;;0.80;;
19788;SDS011;10054;59.332;18.244;2023-06-10T10:56:01;0.90;;;0.90;;
19788;SDS011;10054;59.332;18.244;2023-06-10T10:58:37;1.45;;;0.82;;
19788;SDS011;10054;59.332;18.244;2023-06-10T11:01:13;0.78;;;0.75;;
19788;SDS011;10054;59.332;18.244;2023-06-10T11:03:48;0.70;;;0.70;;
19788;SDS011;10054;59.332;18.244;2023-06-10T11:06:14;0.70;;;0.70;;
19788;SDS011;10054;59.332;18.244;2023-06-10T11:11:19;0.82;;;0.80;;
19788;SDS011;10054;59.332;18.244;2023-06-10T11:16:43;0.70;;;0.70;;
19788;SDS011;10054;59.332;18.244;2023-06-10T11:19:09;0.72;;;0.72;;
19788;SDS011;10054;59.332;18.244;2023-06-10T11:21:58;0.80;;;0.80;;
19788;SDS011;10054;59.332;18.244;2023-06-10T11:24:28;0.80;;;0.80;;
19788;SDS011;10054;59.332;18.244;2023-06-10T11:32:34;0.82;;;0.82;;
19788;SDS011;10054;59.332;18.244;2023-06-10T11:35:03;0.72;;;0.72;;
19788;SDS011;10054;59.332;18.244;2023-06-10T11:37:33;3.05;;;0.85;;
19788;SDS011;10054;59.332;18.244;2023-06-10T11:40:03;1.10;;;0.70;;
19788;SDS011;10054;59.332;18.244;2023-06-10T11:42:33;0.90;;;0.90;;
19788;SDS011;10054;59.332;18.244;2023-06-10T11:45:05;0.80;;;0.80;;
19788;SDS011;10054;59.332;18.244;2023-06-10T11:47:35;2.77;;;0.62;;
19788;SDS011;10054;59.332;18.244;2023-06-10T11:50:04;0.80;;;0.80;;
19788;SDS011;10054;59.332;18.244;2023-06-10T11:52:33;1.45;;;0.70;;
19788;SDS011;10054;59.332;18.244;2023-06-10T11:55:04;1.10;;;0.70;;
19788;SDS011;10054;59.332;18.244;2023-06-10T11:57:36;0.70;;;0.70;;
19788;SDS011;10054;59.332;18.244;2023-06-10T12:00:05;0.80;;;0.80;;
19788;SDS011;10054;59.332;18.244;2023-06-10T12:02:38;2.90;;;0.80;;
19788;SDS011;10054;59.332;18.244;2023-06-10T12:05:12;0.78;;;0.78;;
19788;SDS011;10054;59.332;18.244;2023-06-10T12:07:41;0.75;;;0.75;;
19788;SDS011;10054;59.332;18.244;2023-06-10T12:10:10;0.80;;;0.80;;
19788;SDS011;10054;59.332;18.244;2023-06-10T12:12:39;0.70;;;0.70;;
19788;SDS011;10054;59.332;18.244;2023-06-10T12:15:08;0.78;;;0.78;;
19788;SDS011;10054;59.332;18.244;2023-06-10T12:17:38;3.05;;;0.80;;
19788;SDS011;10054;59.332;18.244;2023-06-10T12:20:07;2.45;;;0.80;;
19788;SDS011;10054;59.332;18.244;2023-06-10T12:22:39;1.02;;;0.80;;
19788;SDS011;10054;59.332;18.244;2023-06-10T12:25:10;1.42;;;0.80;;
19788;SDS011;10054;59.332;18.244;2023-06-10T12:27:40;0.70;;;0.70;;
19788;SDS011;10054;59.332;18.244;2023-06-10T12:30:20;1.20;;;0.80;;
19788;SDS011;10054;59.332;18.244;2023-06-10T12:32:50;1.25;;;0.80;;
19788;SDS011;10054;59.332;18.244;2023-06-10T12:35:20;0.80;;;0.80;;
19788;SDS011;10054;59.332;18.244;2023-06-10T12:38:02;1.20;;;0.80;;
19788;SDS011;10054;59.332;18.244;2023-06-10T12:40:38;1.00;;;0.90;;
19788;SDS011;10054;59.332;18.244;2023-06-10T12:43:07;0.70;;;0.70;;
19788;SDS011;10054;59.332;18.244;2023-06-10T12:45:37;0.85;;;0.80;;
19788;SDS011;10054;59.332;18.244;2023-06-10T12:48:12;0.70;;;0.70;;
19788;SDS011;10054;59.332;18.244;2023-06-10T12:50:52;0.85;;;0.85;;
19788;SDS011;10054;59.332;18.244;2023-06-10T12:53:21;0.88;;;0.88;;
19788;SDS011;10054;59.332;18.244;2023-06-10T12:55:53;1.00;;;0.90;;
19788;SDS011;10054;59.332;18.244;2023-06-10T12:58:23;1.07;;;0.88;;
19788;SDS011;10054;59.332;18.244;2023-06-10T13:00:53;5.17;;;1.05;;
19788;SDS011;10054;59.332;18.244;2023-06-10T13:03:23;0.70;;;0.70;;
19788;SDS011;10054;59.332;18.244;2023-06-10T13:05:52;1.50;;;0.70;;
19788;SDS011;10054;59.332;18.244;2023-06-10T13:08:21;0.82;;;0.82;;
19788;SDS011;10054;59.332;18.244;2023-06-10T13:10:50;2.22;;;0.90;;
19788;SDS011;10054;59.332;18.244;2023-06-10T13:13:19;0.70;;;0.70;;
19788;SDS011;10054;59.332;18.244;2023-06-10T13:15:48;0.78;;;0.78;;
19788;SDS011;10054;59.332;18.244;2023-06-10T13:18:16;2.87;;;0.72;;
19788;SDS011;10054;59.332;18.244;2023-06-10T13:20:46;0.90;;;0.90;;
19788;SDS011;10054;59.332;18.244;2023-06-10T13:23:15;2.62;;;0.88;;
19788;SDS011;10054;59.332;18.244;2023-06-10T13:25:44;0.80;;;0.70;;
19788;SDS011;10054;59.332;18.244;2023-06-10T13:28:13;0.78;;;0.78;;
19788;SDS011;10054;59.332;18.244;2023-06-10T13:30:42;0.78;;;0.78;;
19788;SDS011;10054;59.332;18.244;2023-06-10T13:33:10;1.00;;;0.80;;
19788;SDS011;10054;59.332;18.244;2023-06-10T13:35:39;0.70;;;0.70;;
19788;SDS011;10054;59.332;18.244;2023-06-10T13:38:08;0.80;;;0.70;;
19788;SDS011;10054;59.332;18.244;2023-06-10T13:40:37;0.95;;;0.95;;
19788;SDS011;10054;59.332;18.244;2023-06-10T13:43:05;0.80;;;0.80;;
19788;SDS011;10054;59.332;18.244;2023-06-10T13:45:39;4.28;;;0.70;;
19788;SDS011;10054;59.332;18.244;2023-06-10T13:48:07;0.82;;;0.72;;
19788;SDS011;10054;59.332;18.244;2023-06-10T13:50:37;1.40;;;0.70;;
19788;SDS011;10054;59.332;18.244;2023-06-10T13:53:05;0.70;;;0.70;;
19788;SDS011;10054;59.332;18.244;2023-06-10T13:55:34;0.80;;;0.80;;
19788;SDS011;10054;59.332;18.244;2023-06-10T13:58:03;0.90;;;0.90;;
19788;SDS011;10054;59.332;18.244;2023-06-10T14:00:33;0.82;;;0.82;;
19788;SDS011;10054;59.332;18.244;2023-06-10T14:03:01;1.70;;;0.75;;
19788;SDS011;10054;59.332;18.244;2023-06-10T14:05:30;1.32;;;0.90;;
19788;SDS011;10054;59.332;18.244;2023-06-10T14:07:59;0.88;;;0.88;;
19788;SDS011;10054;59.332;18.244;2023-06-10T14:10:29;3.50;;;0.80;;
19788;SDS011;10054;59.332;18.244;2023-06-10T14:12:59;0.80;;;0.80;;
19788;SDS011;10054;59.332;18.244;2023-06-10T14:15:28;0.93;;;0.90;;
19788;SDS011;10054;59.332;18.244;2023-06-10T14:17:57;1.98;;;0.80;;
19788;SDS011;10054;59.332;18.244;2023-06-10T14:20:26;1.00;;;0.90;;
19788;SDS011;10054;59.332;18.244;2023-06-10T14:22:56;0.85;;;0.82;;
19788;SDS011;10054;59.332;18.244;2023-06-10T14:25:25;0.70;;;0.70;;
19788;SDS011;10054;59.332;18.244;2023-06-10T14:27:54;0.80;;;0.80;;
19788;SDS011;10054;59.332;18.244;2023-06-10T14:30:25;0.75;;;0.75;;
19788;SDS011;10054;59.332;18.244;2023-06-10T14:32:54;0.80;;;0.80;;
19788;SDS011;10054;59.332;18.244;2023-06-10T14:35:23;3.70;;;0.90;;
19788;SDS011;10054;59.332;18.244;2023-06-10T14:37:51;1.50;;;0.82;;
19788;SDS011;10054;59.332;18.244;2023-06-10T14:40:20;0.90;;;0.90;;
19788;SDS011;10054;59.332;18.244;2023-06-10T14:42:51;1.27;;;0.80;;
19788;SDS011;10054;59.332;18.244;2023-06-10T14:45:19;0.90;;;0.90;;
19788;SDS011;10054;59.332;18.244;2023-06-10T14:47:49;0.80;;;0.80;;
19788;SDS011;10054;59.332;18.244;2023-06-10T14:50:17;1.60;;;0.90;;
19788;SDS011;10054;59.332;18.244;2023-06-10T14:52:46;0.88;;;0.88;;
19788;SDS011;10054;59.332;18.244;2023-06-10T14:55:14;0.70;;;0.70;;
19788;SDS011;10054;59.332;18.244;2023-06-10T14:57:43;0.80;;;0.80;;
19788;SDS011;10054;59.332;18.244;2023-06-10T15:00:13;0.80;;;0.80;;
19788;SDS011;10054;59.332;18.244;2023-06-10T15:02:43;0.90;;;0.90;;
19788;SDS011;10054;59.332;18.244;2023-06-10T15:05:13;1.12;;;0.70;;